Ruby M — WCX3165 — position and weather

sailwx.info

Track history (hours):
 
Tides and Currents Weather Stations Pressure Air Temp Water Temp Dewpoint Dewpoint Depression Visibility Wind Speed Wind Dir Waves Ship Positions

Ruby M

Owner: Dann Ocean Towing, TAMPA, FL. More information available from US FCC via Universal Licensing System and Coast Guard Vessel Documentation Center.

Last reported at 2017-Sep-17 00:44 UTC. Time now 2017-Sep-22 19:05 UTC.
Position N 38°03' W 075°00'.

Length 37 m; draft 3.4 m.

Type: Tow > 200 m length. MMSI: 366994750.

Date/timePositionNaut miles runAvg speedWind from/ knotsBaromVisibWave heightAir tempDewpointWater temp
2017-Sep-17 00:44N 38°03' W 075°00'3 7.0
2017-Sep-17 00:21N 38°06' W 074°60'2 6.9
2017-Sep-16 23:59N 38°08' W 074°60'3 6.8
2017-Sep-16 23:31N 38°11' W 074°59'3 6.6
2017-Sep-16 23:00N 38°15' W 074°59'4 6.5
2017-Sep-16 22:24N 38°19' W 074°59'31 6.2
2017-Sep-16 17:23N 38°49' W 074°49'25 6.6
2017-Sep-16 13:33N 39°10' W 074°31'0 6.7
2017-Sep-16 13:29N 39°10' W 074°31'3 6.8
2017-Sep-16 12:58N 39°13' W 074°28'19 6.6
2017-Sep-16 10:09N 39°27' W 074°13'2 6.7
2017-Sep-16 09:52N 39°29' W 074°12'2 6.7
2017-Sep-16 09:30N 39°31' W 074°10'4 6.8
2017-Sep-16 08:59N 39°34' W 074°08'3 6.7
2017-Sep-16 08:30N 39°37' W 074°06'3 6.6
2017-Sep-16 08:00N 39°40' W 074°04'4 6.5
2017-Sep-16 07:20N 39°44' W 074°01'2 6.4
2017-Sep-16 07:00N 39°46' W 074°00'3 6.4
2017-Sep-16 06:30N 39°49' W 073°60'3 6.4
2017-Sep-16 06:00N 39°52' W 073°60'3 6.4
2017-Sep-16 05:30N 39°55' W 073°59'35 6.2
2017-Sep-15 23:46N 40°31' W 073°58'2 7.8
2017-Sep-15 23:30N 40°32' W 074°01'3 6.9
2017-Sep-15 23:00N 40°35' W 074°02'3 5.8
2017-Sep-15 22:30N 40°38' W 074°03'1 2.9
2017-Sep-15 22:00N 40°39' W 074°02'0 0.0
2017-Sep-15 21:30N 40°39' W 074°02'0 0.0
2017-Sep-15 21:00N 40°39' W 074°02'0 1.0
2017-Sep-15 20:30N 40°39' W 074°02'3 6.5
2017-Sep-15 20:00N 40°39' W 074°06'0 0.0
2017-Sep-15 19:30N 40°39' W 074°06'0 0.0
2017-Sep-15 19:00N 40°39' W 074°06'0 0.0
2017-Sep-15 18:30N 40°39' W 074°06'0 0.0
2017-Sep-15 18:00N 40°39' W 074°06'0 0.0
2017-Sep-15 17:30N 40°39' W 074°06'0 0.0
2017-Sep-15 17:00N 40°39' W 074°06'0 0.0
2017-Sep-15 16:30N 40°39' W 074°06'0 0.0
2017-Sep-15 16:00N 40°39' W 074°06'0 0.0
2017-Sep-15 15:30N 40°39' W 074°06'0 0.0
2017-Sep-15 15:00N 40°39' W 074°06'0 0.0
2017-Sep-15 14:30N 40°39' W 074°06'0 0.0
2017-Sep-15 14:00N 40°39' W 074°06'0 0.1
2017-Sep-15 13:30N 40°39' W 074°06'0 0.1
2017-Sep-15 13:00N 40°39' W 074°06'1 2.5
2017-Sep-15 12:30N 40°39' W 074°04'1 2.2
2017-Sep-15 12:00N 40°40' W 074°05'0 0.6
2017-Sep-15 11:30N 40°40' W 074°05'2 3.2
2017-Sep-15 11:00N 40°39' W 074°06'0 0.0
2017-Sep-15 10:30N 40°39' W 074°06'0 0.0
2017-Sep-15 10:00N 40°39' W 074°06'0 0.0
2017-Sep-15 09:30N 40°39' W 074°06'0 0.0
2017-Sep-15 09:00N 40°39' W 074°06'0 0.0
2017-Sep-15 08:30N 40°39' W 074°06'0 0.0
2017-Sep-15 08:00N 40°39' W 074°06'0 0.0
2017-Sep-15 07:30N 40°39' W 074°06'0 0.0
2017-Sep-15 07:00N 40°39' W 074°06'0 0.0
2017-Sep-15 06:30N 40°39' W 074°06'0 0.0
2017-Sep-15 06:00N 40°39' W 074°06'0 0.0
2017-Sep-15 05:30N 40°39' W 074°06'0 0.0
2017-Sep-15 05:00N 40°39' W 074°06'0 0.0
2017-Sep-15 04:30N 40°39' W 074°06'1 1.8
2017-Sep-15 04:00N 40°39' W 074°07'3 6.4
2017-Sep-15 03:29N 40°39' W 074°11'0 1.0
2017-Sep-15 03:00N 40°38' W 074°12'0 0.0
2017-Sep-15 02:30N 40°38' W 074°12'0 0.0
2017-Sep-15 02:00N 40°38' W 074°12'0 0.0
2017-Sep-15 01:25N 40°38' W 074°12'0 0.0
2017-Sep-15 00:59N 40°38' W 074°12'0 0.3
2017-Sep-15 00:30N 40°38' W 074°12'0 0.0
2017-Sep-15 00:00N 40°38' W 074°12'0 0.7
2017-Sep-14 23:30N 40°39' W 074°11'3 3.2
2017-Sep-14 22:33N 40°39' W 074°07'0 8.1
2017-Sep-14 22:30N 40°39' W 074°08'4 6.7
2017-Sep-14 21:59N 40°38' W 074°12'0 0.6
2017-Sep-14 21:30N 40°38' W 074°12'2 4.5
2017-Sep-14 20:59N 40°39' W 074°09'2 0.7
2017-Sep-14 18:40N 40°38' W 074°07'0 0.0
2017-Sep-14 17:18N 40°38' W 074°07'0 1.4
2017-Sep-14 17:00N 40°39' W 074°07'0 0.8
2017-Sep-14 16:30N 40°38' W 074°07'1 2.7
2017-Sep-14 16:00N 40°39' W 074°09'2 4.0
2017-Sep-14 15:30N 40°38' W 074°12'1 1.0
2017-Sep-14 15:00N 40°38' W 074°12'0 0.0
2017-Sep-14 14:30N 40°38' W 074°12'0 0.0
2017-Sep-14 13:59N 40°38' W 074°12'0 0.0
2017-Sep-14 13:28N 40°38' W 074°12'0 0.0
2017-Sep-14 12:56N 40°38' W 074°12'0 0.0
2017-Sep-14 12:29N 40°38' W 074°12'0 0.0
2017-Sep-14 12:00N 40°38' W 074°12'0 0.0
2017-Sep-14 11:29N 40°38' W 074°12'0 0.0
2017-Sep-14 11:00N 40°38' W 074°12'0 0.0
2017-Sep-14 10:30N 40°38' W 074°12'0 0.0
2017-Sep-14 09:56N 40°38' W 074°12'0 0.0
2017-Sep-14 09:22N 40°38' W 074°12'0 0.0
2017-Sep-14 08:50N 40°38' W 074°12'0 0.0
2017-Sep-14 08:28N 40°38' W 074°12'0 0.0
2017-Sep-14 07:56N 40°38' W 074°12'0 0.0
2017-Sep-14 07:30N 40°38' W 074°12'0 0.0
2017-Sep-14 06:48N 40°38' W 074°12'0 0.0
2017-Sep-14 06:20N 40°38' W 074°12'0 0.0
2017-Sep-14 06:00N 40°38' W 074°12'0 0.0
2017-Sep-14 05:30N 40°38' W 074°12'0 0.0
2017-Sep-14 05:00N 40°38' W 074°12'0 0.0
2017-Sep-14 04:30N 40°38' W 074°12'0 0.0
2017-Sep-14 04:00N 40°38' W 074°12'0 0.0
2017-Sep-14 03:01N 40°38' W 074°12'0 0.0
2017-Sep-14 02:50N 40°38' W 074°12'0 0.0
2017-Sep-14 02:24N 40°38' W 074°12'0 0.0
2017-Sep-14 02:00N 40°38' W 074°12'0 0.0
2017-Sep-14 01:29N 40°38' W 074°12'0 0.0
2017-Sep-14 00:54N 40°38' W 074°12'0 0.0
2017-Sep-14 00:29N 40°38' W 074°12'0 0.0
2017-Sep-13 23:31N 40°38' W 074°12'0 0.1
2017-Sep-13 23:26N 40°38' W 074°12'0 0.0
2017-Sep-13 22:44N 40°38' W 074°12'1 1.8
2017-Sep-13 22:27N 40°38' W 074°12'3 7.1
2017-Sep-13 22:00N 40°40' W 074°08'1 1.1
2017-Sep-13 21:30N 40°41' W 074°09'0 0.8
2017-Sep-13 21:00N 40°41' W 074°08'0 0.9
2017-Sep-13 20:30N 40°41' W 074°08'1 1.4
2017-Sep-13 20:00N 40°41' W 074°09'1 1.6
2017-Sep-13 19:30N 40°40' W 074°08'3 6.4
2017-Sep-13 18:59N 40°38' W 074°12'0 0.3
2017-Sep-13 18:28N 40°38' W 074°12'0 0.0
2017-Sep-13 18:00N 40°38' W 074°12'0 0.0
2017-Sep-13 17:22N 40°38' W 074°12'0 0.0
2017-Sep-13 16:47N 40°38' W 074°12'0 0.0
2017-Sep-13 16:25N 40°38' W 074°12'0 0.0
2017-Sep-13 15:59N 40°38' W 074°12'0 0.0
2017-Sep-13 15:29N 40°38' W 074°12'0 0.0
2017-Sep-13 15:00N 40°38' W 074°12'0 0.9
2017-Sep-13 14:29N 40°38' W 074°12'1 2.0
2017-Sep-13 14:00N 40°38' W 074°12'3 5.2
2017-Sep-13 13:30N 40°39' W 074°08'2 3.8
2017-Sep-13 13:00N 40°39' W 074°06'0 0.0
2017-Sep-13 12:30N 40°39' W 074°06'0 0.0
2017-Sep-13 12:00N 40°39' W 074°06'0 0.0
2017-Sep-13 11:30N 40°39' W 074°06'0 0.0
2017-Sep-13 11:00N 40°39' W 074°06'0 0.0
2017-Sep-13 10:30N 40°39' W 074°06'0 0.0
2017-Sep-13 10:01N 40°39' W 074°06'0 0.0
2017-Sep-13 09:30N 40°39' W 074°06'0 0.0
2017-Sep-13 09:00N 40°39' W 074°06'0 0.0
2017-Sep-13 08:30N 40°39' W 074°06'0 0.0
2017-Sep-13 08:00N 40°39' W 074°06'0 0.0
2017-Sep-13 07:30N 40°39' W 074°06'0 0.0
2017-Sep-13 07:00N 40°39' W 074°06'0 0.0
2017-Sep-13 06:30N 40°39' W 074°06'0 0.0
2017-Sep-13 06:00N 40°39' W 074°06'0 0.0
2017-Sep-13 05:30N 40°39' W 074°06'0 0.0
2017-Sep-13 05:00N 40°39' W 074°06'0 0.0
2017-Sep-13 04:30N 40°39' W 074°06'0 0.0
2017-Sep-13 04:00N 40°39' W 074°06'0 0.0
2017-Sep-13 03:30N 40°39' W 074°06'0 0.0
2017-Sep-13 03:00N 40°39' W 074°06'0 0.0
2017-Sep-13 02:30N 40°39' W 074°06'0 0.0
2017-Sep-13 02:00N 40°39' W 074°06'0 0.0
2017-Sep-13 01:30N 40°39' W 074°06'0 0.0
2017-Sep-13 01:00N 40°39' W 074°06'0 0.0
2017-Sep-13 00:30N 40°39' W 074°06'0 0.0
2017-Sep-13 00:00N 40°39' W 074°06'0 0.0
2017-Sep-12 23:30N 40°39' W 074°06'0 0.0
2017-Sep-12 23:00N 40°39' W 074°06'0 0.0
2017-Sep-12 22:30N 40°39' W 074°06'0 0.0
2017-Sep-12 22:00N 40°39' W 074°06'0 0.0
2017-Sep-12 21:30N 40°39' W 074°06'0 0.0
2017-Sep-12 21:00N 40°39' W 074°06'0 0.0
2017-Sep-12 20:30N 40°39' W 074°06'0 0.0
2017-Sep-12 20:00N 40°39' W 074°06'0 0.0
2017-Sep-12 19:30N 40°39' W 074°06'0 0.0
2017-Sep-12 19:00N 40°39' W 074°06'0 0.0
2017-Sep-12 18:30N 40°39' W 074°06'0 0.0
2017-Sep-12 18:00N 40°39' W 074°06'0 0.0
2017-Sep-12 17:30N 40°39' W 074°06'0 0.0
2017-Sep-12 17:00N 40°39' W 074°06'0 0.0
2017-Sep-12 16:30N 40°39' W 074°06'0 0.0
2017-Sep-12 16:00N 40°39' W 074°06'0 0.0
2017-Sep-12 15:30N 40°39' W 074°06'0 0.0
2017-Sep-12 15:00N 40°39' W 074°06'0 0.0
2017-Sep-12 14:30N 40°39' W 074°06'0 0.0
2017-Sep-12 14:00N 40°39' W 074°06'0 0.0
2017-Sep-12 13:30N 40°39' W 074°06'0 0.0
2017-Sep-12 13:00N 40°39' W 074°06'0 0.0
2017-Sep-12 12:30N 40°39' W 074°06'0 0.0
2017-Sep-12 12:01N 40°39' W 074°06'0 0.0
2017-Sep-12 11:31N 40°39' W 074°06'0 0.0
2017-Sep-12 11:00N 40°39' W 074°06'0 0.0
2017-Sep-12 10:30N 40°39' W 074°06'0 0.0
2017-Sep-12 10:00N 40°39' W 074°06'0 0.0
2017-Sep-12 09:30N 40°39' W 074°06'0 0.0
2017-Sep-12 09:00N 40°39' W 074°06'0 0.0
2017-Sep-12 08:30N 40°39' W 074°06'0 0.0
2017-Sep-12 08:00N 40°39' W 074°06'0 0.0
2017-Sep-12 07:30N 40°39' W 074°06'0 0.0
2017-Sep-12 07:00N 40°39' W 074°06'0 0.0
2017-Sep-12 06:30N 40°39' W 074°06'0 0.0
2017-Sep-12 06:00N 40°39' W 074°06'0 0.0
2017-Sep-12 05:30N 40°39' W 074°06'0 0.0
2017-Sep-12 05:00N 40°39' W 074°06'0 0.0
2017-Sep-12 04:30N 40°39' W 074°06'0 0.0
2017-Sep-12 04:00N 40°39' W 074°06'0 0.0
2017-Sep-12 03:30N 40°39' W 074°06'0 0.0
2017-Sep-12 03:00N 40°39' W 074°06'0 0.0
2017-Sep-12 02:30N 40°39' W 074°06'0 0.0
2017-Sep-12 02:00N 40°39' W 074°06'0 0.0
2017-Sep-12 01:30N 40°39' W 074°06'0 0.0
2017-Sep-12 01:01N 40°39' W 074°06'0 0.0
2017-Sep-12 00:30N 40°39' W 074°06'0 0.0
2017-Sep-12 00:00N 40°39' W 074°06'4 8.0
2017-Sep-11 23:30N 40°40' W 074°01'1 1.8
2017-Sep-11 23:00N 40°39' W 074°02'1 2.4
2017-Sep-11 22:30N 40°39' W 074°03'0 0.1
2017-Sep-11 22:00N 40°39' W 074°03'0 0.2
2017-Sep-11 21:30N 40°39' W 074°03'0 0.0
2017-Sep-11 21:00N 40°39' W 074°03'0 0.1
2017-Sep-11 20:30N 40°39' W 074°03'0 0.1
2017-Sep-11 20:00N 40°39' W 074°03'0 0.0
2017-Sep-11 19:31N 40°39' W 074°03'0 0.3
2017-Sep-11 19:00N 40°39' W 074°03'0 0.3
2017-Sep-11 18:30N 40°39' W 074°03'1 1.2
2017-Sep-11 18:00N 40°39' W 074°02'1 2.1
2017-Sep-11 17:31N 40°40' W 074°01'1 1.3
2017-Sep-11 17:00N 40°40' W 074°00'4 8.7
2017-Sep-11 16:30N 40°39' W 074°06'0 0.1
2017-Sep-11 16:00N 40°39' W 074°06'0 0.0
2017-Sep-11 15:30N 40°39' W 074°06'0 0.0
2017-Sep-11 15:00N 40°39' W 074°06'0 0.0
2017-Sep-11 14:30N 40°39' W 074°06'0 0.0
2017-Sep-11 14:00N 40°39' W 074°06'0 0.0
2017-Sep-11 13:30N 40°39' W 074°06'2 3.7
2017-Sep-11 13:00N 40°39' W 074°08'3 1.7
2017-Sep-11 11:20N 40°38' W 074°12'2 7.5
2017-Sep-11 11:00N 40°39' W 074°09'2 4.6
2017-Sep-11 10:30N 40°39' W 074°06'0 0.0
2017-Sep-11 10:00N 40°39' W 074°06'0 0.0
2017-Sep-11 09:30N 40°39' W 074°06'0 0.0
2017-Sep-11 09:00N 40°39' W 074°06'2 3.3
2017-Sep-11 08:30N 40°39' W 074°04'3 5.7
2017-Sep-11 08:00N 40°40' W 074°00'0 0.0
2017-Sep-11 07:30N 40°40' W 074°00'0 0.0
2017-Sep-11 07:00N 40°40' W 074°00'2 3.4
2017-Sep-11 06:30N 40°39' W 074°02'3 5.8
2017-Sep-11 06:00N 40°39' W 074°06'0 0.0
2017-Sep-11 05:30N 40°39' W 074°06'0 0.0
2017-Sep-11 05:00N 40°39' W 074°06'0 0.0
2017-Sep-11 04:30N 40°39' W 074°06'0 0.0
2017-Sep-11 04:00N 40°39' W 074°06'2 3.8
2017-Sep-11 03:30N 40°39' W 074°08'3 5.8
2017-Sep-11 03:00N 40°38' W 074°12'0 0.0
2017-Sep-11 02:30N 40°38' W 074°12'0 0.0
2017-Sep-11 02:00N 40°38' W 074°12'0 0.0
2017-Sep-11 01:29N 40°38' W 074°12'0 0.0
2017-Sep-11 00:59N 40°38' W 074°12'0 0.0
2017-Sep-11 00:28N 40°38' W 074°12'0 0.0
2017-Sep-10 23:52N 40°38' W 074°12'0 0.0
2017-Sep-10 23:29N 40°38' W 074°12'1 1.7
2017-Sep-10 23:00N 40°39' W 074°11'4 8.0
2017-Sep-10 22:30N 40°39' W 074°06'5 9.1
2017-Sep-10 22:00N 40°42' W 074°02'4 8.7
2017-Sep-10 21:30N 40°46' W 073°60'0 0.0
2017-Sep-10 21:00N 40°46' W 073°60'0 0.0
2017-Sep-10 20:30N 40°46' W 073°60'0 0.0
2017-Sep-10 20:00N 40°46' W 073°60'1 2.9
2017-Sep-10 19:30N 40°45' W 074°01'4 8.6
2017-Sep-10 19:00N 40°41' W 074°02'5 9.3
2017-Sep-10 18:29N 40°39' W 074°08'2 3.6
2017-Sep-10 18:00N 40°40' W 074°08'0 0.7
2017-Sep-10 17:30N 40°40' W 074°09'2 3.2
2017-Sep-10 17:00N 40°39' W 074°07'3 5.4
2017-Sep-10 16:30N 40°40' W 074°04'1 2.3
2017-Sep-10 16:00N 40°41' W 074°03'0 0.0
2017-Sep-10 15:30N 40°41' W 074°03'0 0.2
2017-Sep-10 15:00N 40°40' W 074°03'0 0.1
2017-Sep-10 14:00N 40°40' W 074°03'0 0.0
2017-Sep-10 13:30N 40°40' W 074°03'0 0.0
2017-Sep-10 13:00N 40°40' W 074°03'2 4.8
2017-Sep-10 12:30N 40°43' W 074°02'4 7.7
2017-Sep-10 12:00N 40°46' W 073°60'0 0.6
2017-Sep-10 11:30N 40°46' W 074°00'0 0.1
2017-Sep-10 11:00N 40°46' W 074°00'0 0.5
2017-Sep-10 10:30N 40°46' W 073°60'0 0.0
2017-Sep-10 10:00N 40°46' W 073°60'0 0.0
2017-Sep-10 09:30N 40°46' W 073°60'0 0.0
2017-Sep-10 09:00N 40°46' W 073°60'0 0.0
2017-Sep-10 08:30N 40°46' W 073°60'0 0.0
2017-Sep-10 08:00N 40°46' W 073°60'0 0.0
2017-Sep-10 07:30N 40°46' W 073°60'0 0.0
2017-Sep-10 07:01N 40°46' W 073°60'0 0.0
2017-Sep-10 06:30N 40°46' W 073°60'0 0.0
2017-Sep-10 06:00N 40°46' W 073°60'0 0.0
2017-Sep-10 05:30N 40°46' W 073°60'0 0.0
2017-Sep-10 05:00N 40°46' W 073°60'0 0.0
2017-Sep-10 04:30N 40°46' W 073°60'0 0.0
2017-Sep-10 04:00N 40°46' W 073°60'0 0.0
2017-Sep-10 03:30N 40°46' W 073°60'0 0.0
2017-Sep-10 03:00N 40°46' W 073°60'0 0.0
2017-Sep-10 02:30N 40°46' W 073°60'0 0.0
2017-Sep-10 02:00N 40°46' W 073°60'0 0.0
2017-Sep-10 01:30N 40°46' W 073°60'0 0.1
2017-Sep-10 01:00N 40°46' W 073°60'0 0.1
2017-Sep-10 00:30N 40°46' W 073°60'0 0.0
2017-Sep-10 00:00N 40°46' W 073°60'0 0.0
2017-Sep-09 23:30N 40°46' W 073°60'0 0.0
2017-Sep-09 23:00N 40°46' W 073°60'0 0.0
2017-Sep-09 22:30N 40°46' W 073°60'0 0.0
2017-Sep-09 22:00N 40°46' W 073°60'0 0.0
2017-Sep-09 21:30N 40°46' W 073°60'0 0.0
2017-Sep-09 21:00N 40°46' W 073°60'0 0.2
2017-Sep-09 20:30N 40°46' W 074°00'0 0.5
2017-Sep-09 20:00N 40°46' W 074°00'3 6.4
2017-Sep-09 19:30N 40°43' W 074°01'2 5.0
2017-Sep-09 19:00N 40°41' W 074°03'1 1.5
2017-Sep-09 18:30N 40°40' W 074°03'2 4.9
2017-Sep-09 18:00N 40°39' W 074°06'0 0.0
2017-Sep-09 17:30N 40°39' W 074°06'0 0.0
2017-Sep-09 17:00N 40°39' W 074°06'0 0.0
2017-Sep-09 16:30N 40°39' W 074°06'0 0.0
2017-Sep-09 16:00N 40°39' W 074°06'0 0.0
2017-Sep-09 15:31N 40°39' W 074°06'2 3.3
2017-Sep-09 15:00N 40°38' W 074°04'0 0.5
2017-Sep-09 14:30N 40°38' W 074°03'0 0.8
2017-Sep-09 14:00N 40°39' W 074°03'0 0.0
2017-Sep-09 13:30N 40°39' W 074°03'0 0.5
2017-Sep-09 13:00N 40°39' W 074°03'0 0.3
2017-Sep-09 12:30N 40°39' W 074°03'2 4.2
2017-Sep-09 12:00N 40°39' W 074°06'0 0.0
2017-Sep-09 11:30N 40°39' W 074°06'1 1.7
2017-Sep-09 11:00N 40°39' W 074°07'0 0.0
2017-Sep-08 14:34N 40°39' W 074°07'0 6.8
2017-Sep-08 14:30N 40°39' W 074°07'0 0.7
2017-Sep-08 14:00N 40°39' W 074°06'0 0.2
2017-Sep-08 13:29N 40°39' W 074°07'2 4.2
2017-Sep-08 13:00N 40°40' W 074°04'2 3.5
2017-Sep-08 12:30N 40°40' W 074°02'0 0.4
2017-Sep-08 12:00N 40°41' W 074°02'0 0.1
2017-Sep-08 11:30N 40°41' W 074°02'0 0.4
2017-Sep-08 11:00N 40°41' W 074°02'1 1.9
2017-Sep-08 10:30N 40°41' W 074°01'2 3.4
2017-Sep-08 10:00N 40°43' W 073°59'2 4.0
2017-Sep-08 09:30N 40°44' W 073°58'5 6.8
2017-Sep-08 08:46N 40°48' W 073°54'2 6.3
2017-Sep-08 08:30N 40°48' W 073°52'3 0.1
2017-Sep-07 11:35N 40°48' W 073°48'0 0.3
2017-Sep-07 11:27N 40°48' W 073°48'1 0.9
2017-Sep-07 10:35N 40°48' W 073°49'0 6.6
2017-Sep-07 10:30N 40°48' W 073°50'3 6.5
2017-Sep-07 10:00N 40°48' W 073°54'3 4.7
2017-Sep-07 09:28N 40°46' W 073°57'2 4.1
2017-Sep-07 09:00N 40°45' W 073°58'2 4.7
2017-Sep-07 08:30N 40°43' W 073°59'2 4.3
2017-Sep-07 08:00N 40°41' W 074°01'1 2.2
2017-Sep-07 07:30N 40°40' W 074°00'0 0.3
2017-Sep-07 07:00N 40°40' W 074°01'4 7.0
2017-Sep-07 06:30N 40°39' W 074°05'4 8.6
2017-Sep-07 06:00N 40°39' W 074°11'1 1.9
2017-Sep-07 05:22N 40°38' W 074°12'0 0.0
2017-Sep-07 05:00N 40°38' W 074°12'0 0.0
2017-Sep-07 03:27N 40°38' W 074°12'0 0.0
2017-Sep-07 02:59N 40°38' W 074°12'0 0.0
2017-Sep-07 02:29N 40°38' W 074°12'0 0.0
2017-Sep-07 02:00N 40°38' W 074°12'0 0.0
2017-Sep-07 01:30N 40°38' W 074°12'0 0.0
2017-Sep-07 00:57N 40°38' W 074°12'  
Track history (hours):
 
Tides and Currents Weather Stations Pressure Air Temp Water Temp Dewpoint Dewpoint Depression Visibility Wind Speed Wind Dir Waves Ship Positions

Ruby M

Owner: Dann Ocean Towing, TAMPA, FL. More information available from US FCC via Universal Licensing System and Coast Guard Vessel Documentation Center.

Last reported at 2017-Sep-17 00:44 UTC. Time now 2017-Sep-22 19:05 UTC.
Position N 38°03' W 075°00'.

Length 37 m; draft 3.4 m.

Type: Tow > 200 m length. MMSI: 366994750.

Date/timePositionNaut miles runAvg speedWind from/ knotsBaromVisibWave heightAir tempDewpointWater temp
2017-Sep-17 00:44N 38°03' W 075°00'3 7.0
2017-Sep-17 00:21N 38°06' W 074°60'2 6.9
2017-Sep-16 23:59N 38°08' W 074°60'3 6.8
2017-Sep-16 23:31N 38°11' W 074°59'3 6.6
2017-Sep-16 23:00N 38°15' W 074°59'4 6.5
2017-Sep-16 22:24N 38°19' W 074°59'31 6.2
2017-Sep-16 17:23N 38°49' W 074°49'25 6.6
2017-Sep-16 13:33N 39°10' W 074°31'0 6.7
2017-Sep-16 13:29N 39°10' W 074°31'3 6.8
2017-Sep-16 12:58N 39°13' W 074°28'19 6.6
2017-Sep-16 10:09N 39°27' W 074°13'2 6.7
2017-Sep-16 09:52N 39°29' W 074°12'2 6.7
2017-Sep-16 09:30N 39°31' W 074°10'4 6.8
2017-Sep-16 08:59N 39°34' W 074°08'3 6.7
2017-Sep-16 08:30N 39°37' W 074°06'3 6.6
2017-Sep-16 08:00N 39°40' W 074°04'4 6.5
2017-Sep-16 07:20N 39°44' W 074°01'2 6.4
2017-Sep-16 07:00N 39°46' W 074°00'3 6.4
2017-Sep-16 06:30N 39°49' W 073°60'3 6.4
2017-Sep-16 06:00N 39°52' W 073°60'3 6.4
2017-Sep-16 05:30N 39°55' W 073°59'35 6.2
2017-Sep-15 23:46N 40°31' W 073°58'2 7.8
2017-Sep-15 23:30N 40°32' W 074°01'3 6.9
2017-Sep-15 23:00N 40°35' W 074°02'3 5.8
2017-Sep-15 22:30N 40°38' W 074°03'1 2.9
2017-Sep-15 22:00N 40°39' W 074°02'0 0.0
2017-Sep-15 21:30N 40°39' W 074°02'0 0.0
2017-Sep-15 21:00N 40°39' W 074°02'0 1.0
2017-Sep-15 20:30N 40°39' W 074°02'3 6.5
2017-Sep-15 20:00N 40°39' W 074°06'0 0.0
2017-Sep-15 19:30N 40°39' W 074°06'0 0.0
2017-Sep-15 19:00N 40°39' W 074°06'0 0.0
2017-Sep-15 18:30N 40°39' W 074°06'0 0.0
2017-Sep-15 18:00N 40°39' W 074°06'0 0.0
2017-Sep-15 17:30N 40°39' W 074°06'0 0.0
2017-Sep-15 17:00N 40°39' W 074°06'0 0.0
2017-Sep-15 16:30N 40°39' W 074°06'0 0.0
2017-Sep-15 16:00N 40°39' W 074°06'0 0.0
2017-Sep-15 15:30N 40°39' W 074°06'0 0.0
2017-Sep-15 15:00N 40°39' W 074°06'0 0.0
2017-Sep-15 14:30N 40°39' W 074°06'0 0.0
2017-Sep-15 14:00N 40°39' W 074°06'0 0.1
2017-Sep-15 13:30N 40°39' W 074°06'0 0.1
2017-Sep-15 13:00N 40°39' W 074°06'1 2.5
2017-Sep-15 12:30N 40°39' W 074°04'1 2.2
2017-Sep-15 12:00N 40°40' W 074°05'0 0.6
2017-Sep-15 11:30N 40°40' W 074°05'2 3.2
2017-Sep-15 11:00N 40°39' W 074°06'0 0.0
2017-Sep-15 10:30N 40°39' W 074°06'0 0.0
2017-Sep-15 10:00N 40°39' W 074°06'0 0.0
2017-Sep-15 09:30N 40°39' W 074°06'0 0.0
2017-Sep-15 09:00N 40°39' W 074°06'0 0.0
2017-Sep-15 08:30N 40°39' W 074°06'0 0.0
2017-Sep-15 08:00N 40°39' W 074°06'0 0.0
2017-Sep-15 07:30N 40°39' W 074°06'0 0.0
2017-Sep-15 07:00N 40°39' W 074°06'0 0.0
2017-Sep-15 06:30N 40°39' W 074°06'0 0.0
2017-Sep-15 06:00N 40°39' W 074°06'0 0.0
2017-Sep-15 05:30N 40°39' W 074°06'0 0.0
2017-Sep-15 05:00N 40°39' W 074°06'0 0.0
2017-Sep-15 04:30N 40°39' W 074°06'1 1.8
2017-Sep-15 04:00N 40°39' W 074°07'3 6.4
2017-Sep-15 03:29N 40°39' W 074°11'0 1.0
2017-Sep-15 03:00N 40°38' W 074°12'0 0.0
2017-Sep-15 02:30N 40°38' W 074°12'0 0.0
2017-Sep-15 02:00N 40°38' W 074°12'0 0.0
2017-Sep-15 01:25N 40°38' W 074°12'0 0.0
2017-Sep-15 00:59N 40°38' W 074°12'0 0.3
2017-Sep-15 00:30N 40°38' W 074°12'0 0.0
2017-Sep-15 00:00N 40°38' W 074°12'0 0.7
2017-Sep-14 23:30N 40°39' W 074°11'3 3.2
2017-Sep-14 22:33N 40°39' W 074°07'0 8.1
2017-Sep-14 22:30N 40°39' W 074°08'4 6.7
2017-Sep-14 21:59N 40°38' W 074°12'0 0.6
2017-Sep-14 21:30N 40°38' W 074°12'2 4.5
2017-Sep-14 20:59N 40°39' W 074°09'2 0.7
2017-Sep-14 18:40N 40°38' W 074°07'0 0.0
2017-Sep-14 17:18N 40°38' W 074°07'0 1.4
2017-Sep-14 17:00N 40°39' W 074°07'0 0.8
2017-Sep-14 16:30N 40°38' W 074°07'1 2.7
2017-Sep-14 16:00N 40°39' W 074°09'2 4.0
2017-Sep-14 15:30N 40°38' W 074°12'1 1.0
2017-Sep-14 15:00N 40°38' W 074°12'0 0.0
2017-Sep-14 14:30N 40°38' W 074°12'0 0.0
2017-Sep-14 13:59N 40°38' W 074°12'0 0.0
2017-Sep-14 13:28N 40°38' W 074°12'0 0.0
2017-Sep-14 12:56N 40°38' W 074°12'0 0.0
2017-Sep-14 12:29N 40°38' W 074°12'0 0.0
2017-Sep-14 12:00N 40°38' W 074°12'0 0.0
2017-Sep-14 11:29N 40°38' W 074°12'0 0.0
2017-Sep-14 11:00N 40°38' W 074°12'0 0.0
2017-Sep-14 10:30N 40°38' W 074°12'0 0.0
2017-Sep-14 09:56N 40°38' W 074°12'0 0.0
2017-Sep-14 09:22N 40°38' W 074°12'0 0.0
2017-Sep-14 08:50N 40°38' W 074°12'0 0.0
2017-Sep-14 08:28N 40°38' W 074°12'0 0.0
2017-Sep-14 07:56N 40°38' W 074°12'0 0.0
2017-Sep-14 07:30N 40°38' W 074°12'0 0.0
2017-Sep-14 06:48N 40°38' W 074°12'0 0.0
2017-Sep-14 06:20N 40°38' W 074°12'0 0.0
2017-Sep-14 06:00N 40°38' W 074°12'0 0.0
2017-Sep-14 05:30N 40°38' W 074°12'0 0.0
2017-Sep-14 05:00N 40°38' W 074°12'0 0.0
2017-Sep-14 04:30N 40°38' W 074°12'0 0.0
2017-Sep-14 04:00N 40°38' W 074°12'0 0.0
2017-Sep-14 03:01N 40°38' W 074°12'0 0.0
2017-Sep-14 02:50N 40°38' W 074°12'0 0.0
2017-Sep-14 02:24N 40°38' W 074°12'0 0.0
2017-Sep-14 02:00N 40°38' W 074°12'0 0.0
2017-Sep-14 01:29N 40°38' W 074°12'0 0.0
2017-Sep-14 00:54N 40°38' W 074°12'0 0.0
2017-Sep-14 00:29N 40°38' W 074°12'0 0.0
2017-Sep-13 23:31N 40°38' W 074°12'0 0.1
2017-Sep-13 23:26N 40°38' W 074°12'0 0.0
2017-Sep-13 22:44N 40°38' W 074°12'1 1.8
2017-Sep-13 22:27N 40°38' W 074°12'3 7.1
2017-Sep-13 22:00N 40°40' W 074°08'1 1.1
2017-Sep-13 21:30N 40°41' W 074°09'0 0.8
2017-Sep-13 21:00N 40°41' W 074°08'0 0.9
2017-Sep-13 20:30N 40°41' W 074°08'1 1.4
2017-Sep-13 20:00N 40°41' W 074°09'1 1.6
2017-Sep-13 19:30N 40°40' W 074°08'3 6.4
2017-Sep-13 18:59N 40°38' W 074°12'0 0.3
2017-Sep-13 18:28N 40°38' W 074°12'0 0.0
2017-Sep-13 18:00N 40°38' W 074°12'0 0.0
2017-Sep-13 17:22N 40°38' W 074°12'0 0.0
2017-Sep-13 16:47N 40°38' W 074°12'0 0.0
2017-Sep-13 16:25N 40°38' W 074°12'0 0.0
2017-Sep-13 15:59N 40°38' W 074°12'0 0.0
2017-Sep-13 15:29N 40°38' W 074°12'0 0.0
2017-Sep-13 15:00N 40°38' W 074°12'0 0.9
2017-Sep-13 14:29N 40°38' W 074°12'1 2.0
2017-Sep-13 14:00N 40°38' W 074°12'3 5.2
2017-Sep-13 13:30N 40°39' W 074°08'2 3.8
2017-Sep-13 13:00N 40°39' W 074°06'0 0.0
2017-Sep-13 12:30N 40°39' W 074°06'0 0.0
2017-Sep-13 12:00N 40°39' W 074°06'0 0.0
2017-Sep-13 11:30N 40°39' W 074°06'0 0.0
2017-Sep-13 11:00N 40°39' W 074°06'0 0.0
2017-Sep-13 10:30N 40°39' W 074°06'0 0.0
2017-Sep-13 10:01N 40°39' W 074°06'0 0.0
2017-Sep-13 09:30N 40°39' W 074°06'0 0.0
2017-Sep-13 09:00N 40°39' W 074°06'0 0.0
2017-Sep-13 08:30N 40°39' W 074°06'0 0.0
2017-Sep-13 08:00N 40°39' W 074°06'0 0.0
2017-Sep-13 07:30N 40°39' W 074°06'0 0.0
2017-Sep-13 07:00N 40°39' W 074°06'0 0.0
2017-Sep-13 06:30N 40°39' W 074°06'0 0.0
2017-Sep-13 06:00N 40°39' W 074°06'0 0.0
2017-Sep-13 05:30N 40°39' W 074°06'0 0.0
2017-Sep-13 05:00N 40°39' W 074°06'0 0.0
2017-Sep-13 04:30N 40°39' W 074°06'0 0.0
2017-Sep-13 04:00N 40°39' W 074°06'0 0.0
2017-Sep-13 03:30N 40°39' W 074°06'0 0.0
2017-Sep-13 03:00N 40°39' W 074°06'0 0.0
2017-Sep-13 02:30N 40°39' W 074°06'0 0.0
2017-Sep-13 02:00N 40°39' W 074°06'0 0.0
2017-Sep-13 01:30N 40°39' W 074°06'0 0.0
2017-Sep-13 01:00N 40°39' W 074°06'0 0.0
2017-Sep-13 00:30N 40°39' W 074°06'0 0.0
2017-Sep-13 00:00N 40°39' W 074°06'0 0.0
2017-Sep-12 23:30N 40°39' W 074°06'0 0.0
2017-Sep-12 23:00N 40°39' W 074°06'0 0.0
2017-Sep-12 22:30N 40°39' W 074°06'0 0.0
2017-Sep-12 22:00N 40°39' W 074°06'0 0.0
2017-Sep-12 21:30N 40°39' W 074°06'0 0.0
2017-Sep-12 21:00N 40°39' W 074°06'0 0.0
2017-Sep-12 20:30N 40°39' W 074°06'0 0.0
2017-Sep-12 20:00N 40°39' W 074°06'0 0.0
2017-Sep-12 19:30N 40°39' W 074°06'0 0.0
2017-Sep-12 19:00N 40°39' W 074°06'0 0.0
2017-Sep-12 18:30N 40°39' W 074°06'0 0.0
2017-Sep-12 18:00N 40°39' W 074°06'0 0.0
2017-Sep-12 17:30N 40°39' W 074°06'0 0.0
2017-Sep-12 17:00N 40°39' W 074°06'0 0.0
2017-Sep-12 16:30N 40°39' W 074°06'0 0.0
2017-Sep-12 16:00N 40°39' W 074°06'0 0.0
2017-Sep-12 15:30N 40°39' W 074°06'0 0.0
2017-Sep-12 15:00N 40°39' W 074°06'0 0.0
2017-Sep-12 14:30N 40°39' W 074°06'0 0.0
2017-Sep-12 14:00N 40°39' W 074°06'0 0.0
2017-Sep-12 13:30N 40°39' W 074°06'0 0.0
2017-Sep-12 13:00N 40°39' W 074°06'0 0.0
2017-Sep-12 12:30N 40°39' W 074°06'0 0.0
2017-Sep-12 12:01N 40°39' W 074°06'0 0.0
2017-Sep-12 11:31N 40°39' W 074°06'0 0.0
2017-Sep-12 11:00N 40°39' W 074°06'0 0.0
2017-Sep-12 10:30N 40°39' W 074°06'0 0.0
2017-Sep-12 10:00N 40°39' W 074°06'0 0.0
2017-Sep-12 09:30N 40°39' W 074°06'0 0.0
2017-Sep-12 09:00N 40°39' W 074°06'0 0.0
2017-Sep-12 08:30N 40°39' W 074°06'0 0.0
2017-Sep-12 08:00N 40°39' W 074°06'0 0.0
2017-Sep-12 07:30N 40°39' W 074°06'0 0.0
2017-Sep-12 07:00N 40°39' W 074°06'0 0.0
2017-Sep-12 06:30N 40°39' W 074°06'0 0.0
2017-Sep-12 06:00N 40°39' W 074°06'0 0.0
2017-Sep-12 05:30N 40°39' W 074°06'0 0.0
2017-Sep-12 05:00N 40°39' W 074°06'0 0.0
2017-Sep-12 04:30N 40°39' W 074°06'0 0.0
2017-Sep-12 04:00N 40°39' W 074°06'0 0.0
2017-Sep-12 03:30N 40°39' W 074°06'0 0.0
2017-Sep-12 03:00N 40°39' W 074°06'0 0.0
2017-Sep-12 02:30N 40°39' W 074°06'0 0.0
2017-Sep-12 02:00N 40°39' W 074°06'0 0.0
2017-Sep-12 01:30N 40°39' W 074°06'0 0.0
2017-Sep-12 01:01N 40°39' W 074°06'0 0.0
2017-Sep-12 00:30N 40°39' W 074°06'0 0.0
2017-Sep-12 00:00N 40°39' W 074°06'4 8.0
2017-Sep-11 23:30N 40°40' W 074°01'1 1.8
2017-Sep-11 23:00N 40°39' W 074°02'1 2.4
2017-Sep-11 22:30N 40°39' W 074°03'0 0.1
2017-Sep-11 22:00N 40°39' W 074°03'0 0.2
2017-Sep-11 21:30N 40°39' W 074°03'0 0.0
2017-Sep-11 21:00N 40°39' W 074°03'0 0.1
2017-Sep-11 20:30N 40°39' W 074°03'0 0.1
2017-Sep-11 20:00N 40°39' W 074°03'0 0.0
2017-Sep-11 19:31N 40°39' W 074°03'0 0.3
2017-Sep-11 19:00N 40°39' W 074°03'0 0.3
2017-Sep-11 18:30N 40°39' W 074°03'1 1.2
2017-Sep-11 18:00N 40°39' W 074°02'1 2.1
2017-Sep-11 17:31N 40°40' W 074°01'1 1.3
2017-Sep-11 17:00N 40°40' W 074°00'4 8.7
2017-Sep-11 16:30N 40°39' W 074°06'0 0.1
2017-Sep-11 16:00N 40°39' W 074°06'0 0.0
2017-Sep-11 15:30N 40°39' W 074°06'0 0.0
2017-Sep-11 15:00N 40°39' W 074°06'0 0.0
2017-Sep-11 14:30N 40°39' W 074°06'0 0.0
2017-Sep-11 14:00N 40°39' W 074°06'0 0.0
2017-Sep-11 13:30N 40°39' W 074°06'2 3.7
2017-Sep-11 13:00N 40°39' W 074°08'3 1.7
2017-Sep-11 11:20N 40°38' W 074°12'2 7.5
2017-Sep-11 11:00N 40°39' W 074°09'2 4.6
2017-Sep-11 10:30N 40°39' W 074°06'0 0.0
2017-Sep-11 10:00N 40°39' W 074°06'0 0.0
2017-Sep-11 09:30N 40°39' W 074°06'0 0.0
2017-Sep-11 09:00N 40°39' W 074°06'2 3.3
2017-Sep-11 08:30N 40°39' W 074°04'3 5.7
2017-Sep-11 08:00N 40°40' W 074°00'0 0.0
2017-Sep-11 07:30N 40°40' W 074°00'0 0.0
2017-Sep-11 07:00N 40°40' W 074°00'2 3.4
2017-Sep-11 06:30N 40°39' W 074°02'3 5.8
2017-Sep-11 06:00N 40°39' W 074°06'0 0.0
2017-Sep-11 05:30N 40°39' W 074°06'0 0.0
2017-Sep-11 05:00N 40°39' W 074°06'0 0.0
2017-Sep-11 04:30N 40°39' W 074°06'0 0.0
2017-Sep-11 04:00N 40°39' W 074°06'2 3.8
2017-Sep-11 03:30N 40°39' W 074°08'3 5.8
2017-Sep-11 03:00N 40°38' W 074°12'0 0.0
2017-Sep-11 02:30N 40°38' W 074°12'0 0.0
2017-Sep-11 02:00N 40°38' W 074°12'0 0.0
2017-Sep-11 01:29N 40°38' W 074°12'0 0.0
2017-Sep-11 00:59N 40°38' W 074°12'0 0.0
2017-Sep-11 00:28N 40°38' W 074°12'0 0.0
2017-Sep-10 23:52N 40°38' W 074°12'0 0.0
2017-Sep-10 23:29N 40°38' W 074°12'1 1.7
2017-Sep-10 23:00N 40°39' W 074°11'4 8.0
2017-Sep-10 22:30N 40°39' W 074°06'5 9.1
2017-Sep-10 22:00N 40°42' W 074°02'4 8.7
2017-Sep-10 21:30N 40°46' W 073°60'0 0.0
2017-Sep-10 21:00N 40°46' W 073°60'0 0.0
2017-Sep-10 20:30N 40°46' W 073°60'0 0.0
2017-Sep-10 20:00N 40°46' W 073°60'1 2.9
2017-Sep-10 19:30N 40°45' W 074°01'4 8.6
2017-Sep-10 19:00N 40°41' W 074°02'5 9.3
2017-Sep-10 18:29N 40°39' W 074°08'2 3.6
2017-Sep-10 18:00N 40°40' W 074°08'0 0.7
2017-Sep-10 17:30N 40°40' W 074°09'2 3.2
2017-Sep-10 17:00N 40°39' W 074°07'3 5.4
2017-Sep-10 16:30N 40°40' W 074°04'1 2.3
2017-Sep-10 16:00N 40°41' W 074°03'0 0.0
2017-Sep-10 15:30N 40°41' W 074°03'0 0.2
2017-Sep-10 15:00N 40°40' W 074°03'0 0.1
2017-Sep-10 14:00N 40°40' W 074°03'0 0.0
2017-Sep-10 13:30N 40°40' W 074°03'0 0.0
2017-Sep-10 13:00N 40°40' W 074°03'2 4.8
2017-Sep-10 12:30N 40°43' W 074°02'4 7.7
2017-Sep-10 12:00N 40°46' W 073°60'0 0.6
2017-Sep-10 11:30N 40°46' W 074°00'0 0.1
2017-Sep-10 11:00N 40°46' W 074°00'0 0.5
2017-Sep-10 10:30N 40°46' W 073°60'0 0.0
2017-Sep-10 10:00N 40°46' W 073°60'0 0.0
2017-Sep-10 09:30N 40°46' W 073°60'0 0.0
2017-Sep-10 09:00N 40°46' W 073°60'0 0.0
2017-Sep-10 08:30N 40°46' W 073°60'0 0.0
2017-Sep-10 08:00N 40°46' W 073°60'0 0.0
2017-Sep-10 07:30N 40°46' W 073°60'0 0.0
2017-Sep-10 07:01N 40°46' W 073°60'0 0.0
2017-Sep-10 06:30N 40°46' W 073°60'0 0.0
2017-Sep-10 06:00N 40°46' W 073°60'0 0.0
2017-Sep-10 05:30N 40°46' W 073°60'0 0.0
2017-Sep-10 05:00N 40°46' W 073°60'0 0.0
2017-Sep-10 04:30N 40°46' W 073°60'0 0.0
2017-Sep-10 04:00N 40°46' W 073°60'0 0.0
2017-Sep-10 03:30N 40°46' W 073°60'0 0.0
2017-Sep-10 03:00N 40°46' W 073°60'0 0.0
2017-Sep-10 02:30N 40°46' W 073°60'0 0.0
2017-Sep-10 02:00N 40°46' W 073°60'0 0.0
2017-Sep-10 01:30N 40°46' W 073°60'0 0.1
2017-Sep-10 01:00N 40°46' W 073°60'0 0.1
2017-Sep-10 00:30N 40°46' W 073°60'0 0.0
2017-Sep-10 00:00N 40°46' W 073°60'0 0.0
2017-Sep-09 23:30N 40°46' W 073°60'0 0.0
2017-Sep-09 23:00N 40°46' W 073°60'0 0.0
2017-Sep-09 22:30N 40°46' W 073°60'0 0.0
2017-Sep-09 22:00N 40°46' W 073°60'0 0.0
2017-Sep-09 21:30N 40°46' W 073°60'0 0.0
2017-Sep-09 21:00N 40°46' W 073°60'0 0.2
2017-Sep-09 20:30N 40°46' W 074°00'0 0.5
2017-Sep-09 20:00N 40°46' W 074°00'3 6.4
2017-Sep-09 19:30N 40°43' W 074°01'2 5.0
2017-Sep-09 19:00N 40°41' W 074°03'1 1.5
2017-Sep-09 18:30N 40°40' W 074°03'2 4.9
2017-Sep-09 18:00N 40°39' W 074°06'0 0.0
2017-Sep-09 17:30N 40°39' W 074°06'0 0.0
2017-Sep-09 17:00N 40°39' W 074°06'0 0.0
2017-Sep-09 16:30N 40°39' W 074°06'0 0.0
2017-Sep-09 16:00N 40°39' W 074°06'0 0.0
2017-Sep-09 15:31N 40°39' W 074°06'2 3.3
2017-Sep-09 15:00N 40°38' W 074°04'0 0.5
2017-Sep-09 14:30N 40°38' W 074°03'0 0.8
2017-Sep-09 14:00N 40°39' W 074°03'0 0.0
2017-Sep-09 13:30N 40°39' W 074°03'0 0.5
2017-Sep-09 13:00N 40°39' W 074°03'0 0.3
2017-Sep-09 12:30N 40°39' W 074°03'2 4.2
2017-Sep-09 12:00N 40°39' W 074°06'0 0.0
2017-Sep-09 11:30N 40°39' W 074°06'1 1.7
2017-Sep-09 11:00N 40°39' W 074°07'0 0.0
2017-Sep-08 14:34N 40°39' W 074°07'0 6.8
2017-Sep-08 14:30N 40°39' W 074°07'0 0.7
2017-Sep-08 14:00N 40°39' W 074°06'0 0.2
2017-Sep-08 13:29N 40°39' W 074°07'2 4.2
2017-Sep-08 13:00N 40°40' W 074°04'2 3.5
2017-Sep-08 12:30N 40°40' W 074°02'0 0.4
2017-Sep-08 12:00N 40°41' W 074°02'0 0.1
2017-Sep-08 11:30N 40°41' W 074°02'0 0.4
2017-Sep-08 11:00N 40°41' W 074°02'1 1.9
2017-Sep-08 10:30N 40°41' W 074°01'2 3.4
2017-Sep-08 10:00N 40°43' W 073°59'2 4.0
2017-Sep-08 09:30N 40°44' W 073°58'5 6.8
2017-Sep-08 08:46N 40°48' W 073°54'2 6.3
2017-Sep-08 08:30N 40°48' W 073°52'3 0.1
2017-Sep-07 11:35N 40°48' W 073°48'0 0.3
2017-Sep-07 11:27N 40°48' W 073°48'1 0.9
2017-Sep-07 10:35N 40°48' W 073°49'0 6.6
2017-Sep-07 10:30N 40°48' W 073°50'3 6.5
2017-Sep-07 10:00N 40°48' W 073°54'3 4.7
2017-Sep-07 09:28N 40°46' W 073°57'2 4.1
2017-Sep-07 09:00N 40°45' W 073°58'2 4.7
2017-Sep-07 08:30N 40°43' W 073°59'2 4.3
2017-Sep-07 08:00N 40°41' W 074°01'1 2.2
2017-Sep-07 07:30N 40°40' W 074°00'0 0.3
2017-Sep-07 07:00N 40°40' W 074°01'4 7.0
2017-Sep-07 06:30N 40°39' W 074°05'4 8.6
2017-Sep-07 06:00N 40°39' W 074°11'1 1.9
2017-Sep-07 05:22N 40°38' W 074°12'0 0.0
2017-Sep-07 05:00N 40°38' W 074°12'0 0.0
2017-Sep-07 03:27N 40°38' W 074°12'0 0.0
2017-Sep-07 02:59N 40°38' W 074°12'0 0.0
2017-Sep-07 02:29N 40°38' W 074°12'0 0.0
2017-Sep-07 02:00N 40°38' W 074°12'0 0.0
2017-Sep-07 01:30N 40°38' W 074°12'0 0.0
2017-Sep-07 00:57N 40°38' W 074°12'  

Dump ship's entire track history